Time;durP1;ratioP1;P1;durP2;ratioP2;P2;SDS_P1;SDS_P2;PMS_P1;PMS_P2;Temp;Humidity;BMP_temperature;BMP_pressure;BME280_temperature;BME280_humidity;BME280_pressure;Samples;Min_cycle;Max_cycle;Signal;HPM_P1;HPM_P2
2022/07/28 00:01:25;;;;;;;9.35;1.60;;;;;;;;;;5038550;28;20203;-64
2022/07/28 00:03:52;;;;;;;7.65;1.50;;;;;;;;;;5031375;28;21013;-62
2022/07/28 00:06:20;;;;;;;4.53;1.25;;;;;;;;;;5031454;28;20471;-64
2022/07/28 00:08:47;;;;;;;10.52;1.60;;;;;;;;;;5039845;28;20088;-65
2022/07/28 00:11:15;;;;;;;12.63;1.48;;;;;;;;;;5040561;28;20039;-65
2022/07/28 00:13:42;;;;;;;9.57;1.23;;;;;;;;;;5035077;28;20034;-65
2022/07/28 00:16:09;;;;;;;4.32;1.27;;;;;;;;;;5030351;28;20041;-65
2022/07/28 00:18:37;;;;;;;11.45;1.75;;;;;;;;;;5030703;28;20036;-64
2022/07/28 00:21:04;;;;;;;9.10;1.55;;;;;;;;;;5030589;28;20376;-65
2022/07/28 00:23:31;;;;;;;7.72;1.50;;;;;;;;;;5030830;28;20467;-65
2022/07/28 00:25:58;;;;;;;8.73;1.88;;;;;;;;;;5037791;28;20114;-61
2022/07/28 00:28:25;;;;;;;12.90;1.70;;;;;;;;;;5029977;28;20026;-61
2022/07/28 00:30:54;;;;;;;7.70;1.88;;;;;;;;;;5046687;28;20025;-61
2022/07/28 00:33:21;;;;;;;12.93;2.03;;;;;;;;;;5050721;28;20029;-61
2022/07/28 00:35:48;;;;;;;10.15;2.15;;;;;;;;;;5035730;28;20037;-62
2022/07/28 00:38:15;;;;;;;7.63;2.40;;;;;;;;;;5030696;28;20121;-61
2022/07/28 00:43:27;;;;;;;8.25;2.45;;;;;;;;;;5039875;28;20056;-61
2022/07/28 00:45:54;;;;;;;10.20;2.67;;;;;;;;;;5038678;28;20032;-60
2022/07/28 00:48:21;;;;;;;12.65;3.50;;;;;;;;;;5030249;28;20034;-61
2022/07/28 00:50:48;;;;;;;14.73;4.50;;;;;;;;;;5027934;28;20033;-60
2022/07/28 00:53:15;;;;;;;16.83;6.28;;;;;;;;;;5029121;28;20032;-61
2022/07/28 00:55:42;;;;;;;16.20;6.70;;;;;;;;;;5028470;28;20073;-61
2022/07/28 00:58:09;;;;;;;17.08;6.63;;;;;;;;;;5030373;28;20026;-61
2022/07/28 01:00:36;;;;;;;20.48;8.32;;;;;;;;;;5044435;28;20372;-61
2022/07/28 01:03:05;;;;;;;20.98;8.63;;;;;;;;;;5039158;28;20029;-61
2022/07/28 01:05:52;;;;;;;18.98;8.90;;;;;;;;;;5029573;28;20499;-61
2022/07/28 01:08:19;;;;;;;19.40;8.63;;;;;;;;;;5030205;28;20487;-61
2022/07/28 01:10:58;;;;;;;18.33;8.40;;;;;;;;;;5030255;28;20468;-61
2022/07/28 01:13:32;;;;;;;19.42;8.80;;;;;;;;;;5041461;28;20060;-61
2022/07/28 01:16:03;;;;;;;19.17;8.90;;;;;;;;;;5028811;28;20483;-61
2022/07/28 01:18:33;;;;;;;21.90;7.25;;;;;;;;;;5029054;28;20022;-60
2022/07/28 01:21:13;;;;;;;32.20;10.30;;;;;;;;;;5031038;28;20105;-60
2022/07/28 01:23:59;;;;;;;33.67;10.43;;;;;;;;;;5031013;28;20033;-61
2022/07/28 01:26:44;;;;;;;33.28;9.98;;;;;;;;;;5030993;28;20472;-60
2022/07/28 01:29:29;;;;;;;26.50;9.80;;;;;;;;;;5034799;28;20051;-61
2022/07/28 01:31:59;;;;;;;24.63;9.02;;;;;;;;;;5044510;28;20033;-60
2022/07/28 01:34:49;;;;;;;21.38;8.55;;;;;;;;;;5041365;28;20024;-61
2022/07/28 01:37:22;;;;;;;27.45;8.80;;;;;;;;;;5043423;28;20124;-61
2022/07/28 01:39:52;;;;;;;26.30;8.95;;;;;;;;;;5050071;28;20040;-60
2022/07/28 01:42:20;;;;;;;27.70;8.68;;;;;;;;;;5049297;28;20029;-61
2022/07/28 01:44:52;;;;;;;33.83;8.88;;;;;;;;;;5049846;28;20025;-61
2022/07/28 01:47:20;;;;;;;28.17;8.82;;;;;;;;;;5041831;28;20382;-61
2022/07/28 01:49:48;;;;;;;21.98;8.25;;;;;;;;;;5030723;28;20052;-60
2022/07/28 01:52:16;;;;;;;22.13;7.70;;;;;;;;;;5035637;28;20060;-60
2022/07/28 01:54:45;;;;;;;24.15;7.95;;;;;;;;;;5037432;28;20021;-60
2022/07/28 01:57:13;;;;;;;38.08;8.88;;;;;;;;;;5045390;28;20045;-61
2022/07/28 01:59:42;;;;;;;24.48;8.80;;;;;;;;;;5036144;28;20036;-60
2022/07/28 02:02:10;;;;;;;25.02;8.35;;;;;;;;;;5032111;28;20017;-61
2022/07/28 02:04:38;;;;;;;22.42;8.50;;;;;;;;;;5032540;28;20086;-61
2022/07/28 02:07:06;;;;;;;25.10;8.45;;;;;;;;;;5046008;28;20021;-61
2022/07/28 02:09:34;;;;;;;24.20;8.18;;;;;;;;;;5050159;28;20591;-60
2022/07/28 02:12:03;;;;;;;23.52;8.80;;;;;;;;;;5051660;28;20115;-59
2022/07/28 02:14:31;;;;;;;21.77;7.85;;;;;;;;;;5048704;28;20037;-60
2022/07/28 02:17:02;;;;;;;19.77;7.47;;;;;;;;;;5053120;28;20040;-60
2022/07/28 02:19:30;;;;;;;19.55;7.45;;;;;;;;;;5052340;28;20064;-60
2022/07/28 02:21:57;;;;;;;18.17;6.80;;;;;;;;;;5041863;28;20025;-61
2022/07/28 02:24:26;;;;;;;26.52;6.88;;;;;;;;;;5033392;28;20642;-61
2022/07/28 02:27:00;;;;;;;19.80;6.70;;;;;;;;;;5051087;28;20025;-60
2022/07/28 02:29:30;;;;;;;23.92;6.85;;;;;;;;;;5053350;28;20425;-60
2022/07/28 02:32:17;;;;;;;30.67;6.85;;;;;;;;;;5053767;28;20481;-61
2022/07/28 02:34:47;;;;;;;25.75;6.40;;;;;;;;;;5033309;28;20029;-61
2022/07/28 02:37:16;;;;;;;20.83;6.25;;;;;;;;;;5034135;28;20033;-61
2022/07/28 02:39:48;;;;;;;19.98;6.00;;;;;;;;;;5033862;28;20037;-60
2022/07/28 02:42:18;;;;;;;13.55;5.70;;;;;;;;;;5048263;28;20033;-60
2022/07/28 02:44:48;;;;;;;15.70;5.63;;;;;;;;;;5051972;28;20095;-60
2022/07/28 02:47:18;;;;;;;20.95;5.65;;;;;;;;;;5050981;28;20025;-60
2022/07/28 02:49:45;;;;;;;19.50;5.53;;;;;;;;;;5047525;28;20712;-60
2022/07/28 02:52:13;;;;;;;19.35;5.50;;;;;;;;;;5051620;28;20037;-60
2022/07/28 02:54:40;;;;;;;13.50;5.30;;;;;;;;;;5050661;28;20479;-60
2022/07/28 02:57:07;;;;;;;14.23;4.45;;;;;;;;;;5052730;28;20036;-60
2022/07/28 02:59:35;;;;;;;13.13;4.63;;;;;;;;;;5053201;28;20116;-60
2022/07/28 03:02:02;;;;;;;11.45;4.55;;;;;;;;;;5052958;28;20041;-60
2022/07/28 03:07:16;;;;;;;12.48;4.68;;;;;;;;;;5053329;28;20111;-60
2022/07/28 03:09:44;;;;;;;13.30;4.55;;;;;;;;;;5052726;28;20029;-60
2022/07/28 03:12:11;;;;;;;15.73;5.05;;;;;;;;;;5053131;28;20027;-60
2022/07/28 03:14:39;;;;;;;15.32;4.72;;;;;;;;;;5052790;28;20029;-60
2022/07/28 03:17:06;;;;;;;18.10;5.00;;;;;;;;;;5052186;28;20025;-60
2022/07/28 03:19:33;;;;;;;13.48;4.60;;;;;;;;;;5053334;28;20108;-60
2022/07/28 03:22:00;;;;;;;20.23;4.50;;;;;;;;;;5051477;28;20090;-60
2022/07/28 03:24:29;;;;;;;17.15;4.55;;;;;;;;;;5052350;28;20035;-60
2022/07/28 03:27:22;;;;;;;11.02;4.35;;;;;;;;;;5052968;28;20025;-60
2022/07/28 03:29:53;;;;;;;11.30;4.03;;;;;;;;;;5049780;28;20125;-60
2022/07/28 03:32:21;;;;;;;15.10;4.00;;;;;;;;;;5053204;28;20036;-60
2022/07/28 03:34:48;;;;;;;10.80;3.70;;;;;;;;;;5052804;28;20033;-60
2022/07/28 03:37:18;;;;;;;11.00;3.70;;;;;;;;;;5052352;28;20060;-60
2022/07/28 03:39:47;;;;;;;7.72;3.40;;;;;;;;;;5052537;28;20469;-60
2022/07/28 03:42:18;;;;;;;12.93;3.88;;;;;;;;;;5053058;28;20024;-60
2022/07/28 03:44:49;;;;;;;10.98;3.53;;;;;;;;;;5052862;28;20028;-60
2022/07/28 03:47:20;;;;;;;10.73;3.67;;;;;;;;;;5051976;28;20083;-60
2022/07/28 03:49:48;;;;;;;11.13;3.55;;;;;;;;;;5052388;28;20037;-60
2022/07/28 03:52:15;;;;;;;11.02;3.28;;;;;;;;;;5052539;28;20063;-60
2022/07/28 03:54:41;;;;;;;9.68;3.28;;;;;;;;;;5052464;28;20466;-60
2022/07/28 03:57:08;;;;;;;9.13;3.60;;;;;;;;;;5053000;28;20036;-60
2022/07/28 03:59:35;;;;;;;9.82;3.25;;;;;;;;;;5050413;28;20065;-60
2022/07/28 04:02:03;;;;;;;7.05;3.13;;;;;;;;;;5052872;28;20025;-60
2022/07/28 04:04:30;;;;;;;11.07;3.15;;;;;;;;;;5051965;28;20025;-60
2022/07/28 04:06:57;;;;;;;11.80;3.38;;;;;;;;;;5052846;28;20072;-60
2022/07/28 04:09:24;;;;;;;7.63;3.25;;;;;;;;;;5052092;28;20122;-60
2022/07/28 04:11:51;;;;;;;8.65;3.45;;;;;;;;;;5052251;28;20077;-60
2022/07/28 04:14:18;;;;;;;5.03;2.63;;;;;;;;;;5052040;28;20056;-60
2022/07/28 04:16:45;;;;;;;8.38;3.15;;;;;;;;;;5051977;28;20021;-60
2022/07/28 04:19:12;;;;;;;6.40;3.03;;;;;;;;;;5051441;28;20140;-60
2022/07/28 04:21:39;;;;;;;6.50;2.80;;;;;;;;;;5050830;28;20029;-60
2022/07/28 04:24:06;;;;;;;7.13;2.80;;;;;;;;;;5051632;28;20461;-60
2022/07/28 04:26:33;;;;;;;7.75;2.90;;;;;;;;;;5051983;28;20029;-60
2022/07/28 04:29:00;;;;;;;9.25;3.03;;;;;;;;;;5051667;28;20056;-60
2022/07/28 04:31:27;;;;;;;5.13;2.88;;;;;;;;;;5052201;28;20090;-60
2022/07/28 04:33:54;;;;;;;7.50;2.63;;;;;;;;;;5052191;28;20033;-60
2022/07/28 04:36:21;;;;;;;8.18;2.88;;;;;;;;;;5051155;28;20040;-60
2022/07/28 04:38:48;;;;;;;6.35;2.42;;;;;;;;;;5052057;28;20487;-60
2022/07/28 04:41:15;;;;;;;5.60;2.50;;;;;;;;;;5051269;28;20025;-60
2022/07/28 04:43:42;;;;;;;5.00;2.42;;;;;;;;;;5052107;28;20044;-60
2022/07/28 04:46:09;;;;;;;5.00;2.50;;;;;;;;;;5051843;28;20037;-60
2022/07/28 04:48:36;;;;;;;7.07;2.38;;;;;;;;;;5051075;28;20514;-60
2022/07/28 04:51:02;;;;;;;4.72;2.20;;;;;;;;;;5050972;28;20056;-60
2022/07/28 04:53:31;;;;;;;5.38;2.50;;;;;;;;;;5051430;28;20117;-60
2022/07/28 04:55:58;;;;;;;6.15;2.30;;;;;;;;;;5051583;28;20035;-60
2022/07/28 04:58:26;;;;;;;5.60;2.38;;;;;;;;;;5051029;28;20573;-61
2022/07/28 05:00:53;;;;;;;5.22;2.95;;;;;;;;;;5051830;28;20033;-60
2022/07/28 05:03:21;;;;;;;6.40;2.38;;;;;;;;;;5051276;28;20036;-60
2022/07/28 05:05:48;;;;;;;5.55;2.15;;;;;;;;;;5051617;28;20037;-60
2022/07/28 05:08:15;;;;;;;5.80;2.10;;;;;;;;;;5051037;28;20029;-60
2022/07/28 05:10:42;;;;;;;3.88;1.83;;;;;;;;;;5051100;28;20029;-60
2022/07/28 05:13:09;;;;;;;8.85;2.60;;;;;;;;;;5051552;28;20104;-60
2022/07/28 05:15:35;;;;;;;4.18;1.90;;;;;;;;;;5051212;28;20051;-60
2022/07/28 05:18:02;;;;;;;4.57;2.25;;;;;;;;;;5051103;28;20108;-60
2022/07/28 05:20:30;;;;;;;4.00;2.22;;;;;;;;;;5050742;28;20029;-60
2022/07/28 05:22:56;;;;;;;4.95;1.73;;;;;;;;;;5051708;28;20029;-60
2022/07/28 05:25:24;;;;;;;6.47;2.10;;;;;;;;;;5051570;28;20033;-60
2022/07/28 05:27:52;;;;;;;5.28;2.28;;;;;;;;;;5050962;28;20387;-60
2022/07/28 05:30:19;;;;;;;3.67;1.90;;;;;;;;;;5050617;28;20513;-60
2022/07/28 05:32:52;;;;;;;5.00;1.92;;;;;;;;;;5054253;28;20060;-60
2022/07/28 05:35:19;;;;;;;3.70;1.98;;;;;;;;;;5055298;28;20075;-60
2022/07/28 05:37:46;;;;;;;3.85;1.90;;;;;;;;;;5055213;28;20126;-60
2022/07/28 05:40:14;;;;;;;2.58;1.60;;;;;;;;;;5054432;28;20021;-60
2022/07/28 05:42:46;;;;;;;4.03;1.75;;;;;;;;;;5055385;28;20029;-60
2022/07/28 05:45:14;;;;;;;3.72;1.83;;;;;;;;;;5054953;28;20044;-60
2022/07/28 05:47:42;;;;;;;2.90;1.65;;;;;;;;;;5055261;28;20096;-60
2022/07/28 05:50:10;;;;;;;2.88;1.50;;;;;;;;;;5054942;28;20422;-60
2022/07/28 05:52:37;;;;;;;3.97;1.80;;;;;;;;;;5054302;28;20048;-60
2022/07/28 05:55:04;;;;;;;4.13;1.73;;;;;;;;;;5054259;28;20021;-60
2022/07/28 05:57:32;;;;;;;2.85;1.65;;;;;;;;;;5054707;28;20025;-60
2022/07/28 05:59:59;;;;;;;4.88;1.50;;;;;;;;;;5055110;28;20029;-61
2022/07/28 06:02:25;;;;;;;3.20;1.48;;;;;;;;;;5053925;28;20017;-60
2022/07/28 06:04:52;;;;;;;2.78;1.48;;;;;;;;;;5054737;28;20072;-60
2022/07/28 06:07:19;;;;;;;2.90;1.60;;;;;;;;;;5054343;28;20364;-60
2022/07/28 06:09:46;;;;;;;3.97;1.80;;;;;;;;;;5054168;28;20430;-60
2022/07/28 06:12:13;;;;;;;2.30;1.20;;;;;;;;;;5054467;28;20104;-60
2022/07/28 06:14:40;;;;;;;2.08;1.33;;;;;;;;;;5054816;28;20017;-60
2022/07/28 06:17:07;;;;;;;2.80;1.20;;;;;;;;;;5054033;28;20565;-60
2022/07/28 06:19:34;;;;;;;2.00;1.20;;;;;;;;;;5054526;28;20108;-60
2022/07/28 06:22:02;;;;;;;3.00;1.52;;;;;;;;;;5054305;28;20422;-60
2022/07/28 06:24:29;;;;;;;3.25;1.38;;;;;;;;;;5053998;28;20440;-61
2022/07/28 06:26:56;;;;;;;2.85;1.10;;;;;;;;;;5054073;28;20090;-60
2022/07/28 06:29:23;;;;;;;2.33;1.20;;;;;;;;;;5054465;28;20033;-60
2022/07/28 06:31:50;;;;;;;1.10;0.90;;;;;;;;;;5053639;28;20025;-60
2022/07/28 06:34:17;;;;;;;2.65;1.00;;;;;;;;;;5054389;28;20021;-60
2022/07/28 06:36:44;;;;;;;2.55;1.20;;;;;;;;;;5053651;28;20029;-60
2022/07/28 06:39:11;;;;;;;2.72;1.25;;;;;;;;;;5053603;28;20106;-60
2022/07/28 06:41:42;;;;;;;2.63;1.40;;;;;;;;;;5053021;28;20029;-60
2022/07/28 06:44:09;;;;;;;1.15;0.90;;;;;;;;;;5053587;28;20598;-60
2022/07/28 06:46:35;;;;;;;2.80;1.30;;;;;;;;;;5053887;28;20032;-60
2022/07/28 06:49:03;;;;;;;0.80;0.77;;;;;;;;;;5053938;28;20506;-60
2022/07/28 06:51:31;;;;;;;2.00;1.13;;;;;;;;;;5053302;28;20053;-60
2022/07/28 06:53:58;;;;;;;2.22;1.20;;;;;;;;;;5053769;28;20704;-60
2022/07/28 06:56:25;;;;;;;2.20;1.20;;;;;;;;;;5053862;28;20501;-60
2022/07/28 06:58:52;;;;;;;1.80;0.90;;;;;;;;;;5053317;28;20119;-60
2022/07/28 07:01:19;;;;;;;2.70;1.02;;;;;;;;;;5053736;28;20021;-60
2022/07/28 07:03:46;;;;;;;1.50;1.00;;;;;;;;;;5052994;28;20079;-60
2022/07/28 07:06:13;;;;;;;2.15;1.00;;;;;;;;;;5053080;28;20025;-60
2022/07/28 07:08:40;;;;;;;2.08;0.80;;;;;;;;;;5053794;28;20025;-60
2022/07/28 07:11:07;;;;;;;2.05;0.90;;;;;;;;;;5053043;28;20035;-60
2022/07/28 07:13:34;;;;;;;1.85;0.98;;;;;;;;;;5053760;28;20021;-60
2022/07/28 07:16:01;;;;;;;2.78;1.10;;;;;;;;;;5052614;28;20173;-60
2022/07/28 07:18:28;;;;;;;1.60;1.00;;;;;;;;;;5053585;28;20134;-60
2022/07/28 07:20:57;;;;;;;1.67;1.08;;;;;;;;;;5053304;28;20079;-60
2022/07/28 07:23:23;;;;;;;1.80;0.93;;;;;;;;;;5052914;28;20074;-60
2022/07/28 07:25:50;;;;;;;1.75;1.02;;;;;;;;;;5053542;28;20028;-60
2022/07/28 07:28:17;;;;;;;1.48;0.70;;;;;;;;;;5046202;28;20068;-60
2022/07/28 07:33:54;;;;;;;1.92;0.80;;;;;;;;;;5034752;28;20581;-60
2022/07/28 07:36:21;;;;;;;1.88;0.98;;;;;;;;;;5033444;28;20041;-61
2022/07/28 07:38:48;;;;;;;1.55;0.75;;;;;;;;;;5032607;28;20057;-60
2022/07/28 07:41:17;;;;;;;4.32;0.90;;;;;;;;;;5033437;28;20036;-60
2022/07/28 07:43:45;;;;;;;1.77;0.88;;;;;;;;;;5032691;28;20029;-60
2022/07/28 07:46:11;;;;;;;1.90;0.60;;;;;;;;;;5032957;28;20025;-60
2022/07/28 07:48:38;;;;;;;1.80;0.80;;;;;;;;;;5032671;28;20155;-60
2022/07/28 07:51:05;;;;;;;1.13;0.70;;;;;;;;;;5032761;28;20041;-60
2022/07/28 07:53:32;;;;;;;1.35;0.70;;;;;;;;;;5033226;28;20032;-60
2022/07/28 07:55:59;;;;;;;1.25;0.60;;;;;;;;;;5031795;28;20037;-60
2022/07/28 07:58:27;;;;;;;2.13;0.70;;;;;;;;;;5033165;28;20029;-60
2022/07/28 08:00:54;;;;;;;1.85;0.70;;;;;;;;;;5032204;28;20076;-61
2022/07/28 08:03:21;;;;;;;1.15;0.65;;;;;;;;;;5032924;28;20044;-60
2022/07/28 08:05:48;;;;;;;1.50;0.77;;;;;;;;;;5032491;28;20053;-60
2022/07/28 08:08:15;;;;;;;0.73;0.52;;;;;;;;;;5032447;28;20025;-60
2022/07/28 08:10:42;;;;;;;1.77;0.60;;;;;;;;;;5032412;28;20442;-60
2022/07/28 08:13:09;;;;;;;1.48;0.70;;;;;;;;;;5032509;28;20037;-60
2022/07/28 08:15:36;;;;;;;1.10;0.70;;;;;;;;;;5031942;28;20391;-60
2022/07/28 08:18:03;;;;;;;1.20;0.60;;;;;;;;;;5032817;28;20030;-61
2022/07/28 08:20:30;;;;;;;1.45;0.70;;;;;;;;;;5032020;28;20494;-60
2022/07/28 08:22:57;;;;;;;1.27;0.60;;;;;;;;;;5032314;28;20484;-60
2022/07/28 08:25:24;;;;;;;1.02;0.63;;;;;;;;;;5032469;28;20043;-60
2022/07/28 08:30:27;;;;;;;1.10;0.63;;;;;;;;;;4991688;28;20120;-63
2022/07/28 08:32:54;;;;;;;2.03;0.80;;;;;;;;;;4992860;28;20561;-62
2022/07/28 08:35:21;;;;;;;1.55;0.70;;;;;;;;;;4992574;28;20030;-62
2022/07/28 08:37:48;;;;;;;1.80;0.70;;;;;;;;;;4993235;28;20546;-62
2022/07/28 08:40:15;;;;;;;1.55;0.95;;;;;;;;;;4992634;28;20045;-62
2022/07/28 08:42:55;;;;;;;0.90;0.60;;;;;;;;;;4993146;28;20476;-62
2022/07/28 08:45:25;;;;;;;1.05;0.60;;;;;;;;;;4992790;28;20114;-62
2022/07/28 08:47:52;;;;;;;1.13;0.60;;;;;;;;;;4992674;28;20061;-63
2022/07/28 08:50:23;;;;;;;0.90;0.65;;;;;;;;;;4992827;28;20026;-63
2022/07/28 08:52:51;;;;;;;1.08;0.70;;;;;;;;;;4992190;28;20038;-62
2022/07/28 08:55:27;;;;;;;1.17;0.68;;;;;;;;;;4993043;28;20476;-62
2022/07/28 08:57:56;;;;;;;1.00;0.73;;;;;;;;;;4975368;28;20122;-62
2022/07/28 09:00:24;;;;;;;1.35;0.40;;;;;;;;;;4992730;28;20031;-62
2022/07/28 09:02:51;;;;;;;1.67;0.60;;;;;;;;;;4992882;28;20030;-63
2022/07/28 09:05:21;;;;;;;0.82;0.57;;;;;;;;;;4992640;28;20118;-63
2022/07/28 09:07:49;;;;;;;1.00;0.70;;;;;;;;;;4994911;28;20027;-63
2022/07/28 09:10:17;;;;;;;1.38;0.50;;;;;;;;;;4996540;28;20041;-62
2022/07/28 09:12:44;;;;;;;1.33;0.68;;;;;;;;;;4996792;28;20480;-62
2022/07/28 09:15:12;;;;;;;1.23;0.50;;;;;;;;;;4996639;28;20459;-63
2022/07/28 09:17:39;;;;;;;0.50;0.50;;;;;;;;;;4978298;28;20057;-63
2022/07/28 09:20:07;;;;;;;2.22;0.63;;;;;;;;;;4996823;28;20439;-63
2022/07/28 09:22:35;;;;;;;0.65;0.60;;;;;;;;;;4996102;28;20029;-62
2022/07/28 09:25:02;;;;;;;1.10;0.70;;;;;;;;;;4996635;28;20034;-62
2022/07/28 09:27:43;;;;;;;1.58;0.60;;;;;;;;;;4996295;28;20089;-62
2022/07/28 09:30:11;;;;;;;0.52;0.47;;;;;;;;;;4996011;28;20078;-62
2022/07/28 09:32:38;;;;;;;0.95;0.60;;;;;;;;;;4995738;28;20036;-62
2022/07/28 09:35:18;;;;;;;1.02;0.60;;;;;;;;;;4996194;28;20031;-62
2022/07/28 09:37:45;;;;;;;0.68;0.52;;;;;;;;;;4995671;28;20066;-62
2022/07/28 09:40:12;;;;;;;0.80;0.60;;;;;;;;;;4996104;28;20117;-63
2022/07/28 09:42:48;;;;;;;0.50;0.50;;;;;;;;;;4995656;28;20019;-62
2022/07/28 09:45:15;;;;;;;1.17;0.60;;;;;;;;;;4995477;28;20034;-62
2022/07/28 09:47:42;;;;;;;0.85;0.47;;;;;;;;;;4995822;28;20068;-63
2022/07/28 09:50:19;;;;;;;1.13;0.50;;;;;;;;;;4995598;28;20018;-62
2022/07/28 09:52:46;;;;;;;0.57;0.50;;;;;;;;;;4996153;28;20034;-62
2022/07/28 09:55:13;;;;;;;0.63;0.57;;;;;;;;;;4995263;28;20030;-62
2022/07/28 09:57:40;;;;;;;0.68;0.60;;;;;;;;;;4995952;28;20027;-62
2022/07/28 10:00:11;;;;;;;0.95;0.50;;;;;;;;;;4995585;28;20026;-63
2022/07/28 10:02:38;;;;;;;0.60;0.40;;;;;;;;;;4995534;28;20431;-62
2022/07/28 10:05:06;;;;;;;0.82;0.55;;;;;;;;;;4996067;28;20077;-62
2022/07/28 10:07:33;;;;;;;0.70;0.45;;;;;;;;;;4995422;28;20026;-62
2022/07/28 10:10:00;;;;;;;1.17;0.40;;;;;;;;;;4995380;28;20114;-61
2022/07/28 10:12:29;;;;;;;1.25;0.50;;;;;;;;;;4993761;28;20569;-63
2022/07/28 10:14:58;;;;;;;0.93;0.50;;;;;;;;;;4995055;28;20046;-62
2022/07/28 10:17:32;;;;;;;0.40;0.40;;;;;;;;;;4994482;28;20042;-62
2022/07/28 10:20:00;;;;;;;1.00;0.52;;;;;;;;;;4995016;28;20034;-62
2022/07/28 10:22:32;;;;;;;0.82;0.50;;;;;;;;;;4994696;28;20030;-63
2022/07/28 10:25:05;;;;;;;0.57;0.40;;;;;;;;;;4994770;28;20038;-62
2022/07/28 10:27:32;;;;;;;0.43;0.30;;;;;;;;;;4994950;28;20550;-62
2022/07/28 10:30:01;;;;;;;1.60;0.50;;;;;;;;;;4994300;28;20061;-62
2022/07/28 10:32:29;;;;;;;0.95;0.50;;;;;;;;;;4994335;28;20472;-62
2022/07/28 10:35:06;;;;;;;2.38;0.40;;;;;;;;;;4994913;28;20034;-62
2022/07/28 10:37:37;;;;;;;0.40;0.35;;;;;;;;;;4994812;28;20045;-63
2022/07/28 10:40:08;;;;;;;0.77;0.40;;;;;;;;;;4994562;28;20377;-62
2022/07/28 10:42:36;;;;;;;1.25;0.50;;;;;;;;;;4994096;28;20097;-62
2022/07/28 10:45:04;;;;;;;0.70;0.40;;;;;;;;;;4995052;28;20117;-62
2022/07/28 10:47:31;;;;;;;1.00;0.52;;;;;;;;;;4994637;28;20026;-62
2022/07/28 10:49:58;;;;;;;2.55;0.50;;;;;;;;;;4994676;28;20482;-62
2022/07/28 10:52:26;;;;;;;0.65;0.50;;;;;;;;;;4994694;28;20125;-62
2022/07/28 10:55:03;;;;;;;0.77;0.40;;;;;;;;;;4993907;28;20022;-62
2022/07/28 10:57:30;;;;;;;1.38;0.50;;;;;;;;;;4994121;28;20042;-63
2022/07/28 11:00:04;;;;;;;0.50;0.28;;;;;;;;;;4994585;28;20030;-62
2022/07/28 11:02:44;;;;;;;0.40;0.30;;;;;;;;;;4993803;28;20025;-62
2022/07/28 11:05:26;;;;;;;1.48;0.63;;;;;;;;;;4994605;28;20429;-62
2022/07/28 11:07:53;;;;;;;0.85;0.50;;;;;;;;;;4993691;28;20027;-62
2022/07/28 11:10:21;;;;;;;1.35;0.50;;;;;;;;;;4994469;28;20468;-62
2022/07/28 11:12:49;;;;;;;1.85;0.47;;;;;;;;;;4993586;28;20050;-62
2022/07/28 11:15:30;;;;;;;0.80;0.30;;;;;;;;;;4993657;28;20104;-63
2022/07/28 11:17:58;;;;;;;0.98;0.50;;;;;;;;;;4994029;28;20116;-62
2022/07/28 11:20:43;;;;;;;1.67;0.55;;;;;;;;;;4993622;28;20542;-62
2022/07/28 11:23:28;;;;;;;0.70;0.50;;;;;;;;;;4993613;28;20037;-62
2022/07/28 11:26:13;;;;;;;1.10;0.35;;;;;;;;;;4993549;28;20034;-62
2022/07/28 11:28:59;;;;;;;0.52;0.40;;;;;;;;;;4993470;28;20058;-62
2022/07/28 11:31:44;;;;;;;0.50;0.40;;;;;;;;;;4993494;28;20042;-62
2022/07/28 11:34:15;;;;;;;1.23;0.52;;;;;;;;;;4993721;28;20037;-63
2022/07/28 11:37:01;;;;;;;0.73;0.32;;;;;;;;;;4993106;28;20034;-62
2022/07/28 11:39:31;;;;;;;0.85;0.50;;;;;;;;;;4993352;28;20034;-62
2022/07/28 11:41:58;;;;;;;1.05;0.40;;;;;;;;;;4993620;28;20045;-62
2022/07/28 11:44:25;;;;;;;0.80;0.50;;;;;;;;;;4993042;28;20030;-63
2022/07/28 11:46:52;;;;;;;0.63;0.40;;;;;;;;;;4993242;28;20030;-62
2022/07/28 11:49:21;;;;;;;1.25;0.57;;;;;;;;;;4993390;28;20062;-62
2022/07/28 11:52:07;;;;;;;0.68;0.43;;;;;;;;;;4992580;28;20038;-62
2022/07/28 11:54:35;;;;;;;0.90;0.55;;;;;;;;;;4993601;28;20038;-62
2022/07/28 11:57:03;;;;;;;1.17;0.50;;;;;;;;;;4993141;28;20058;-62
2022/07/28 11:59:43;;;;;;;1.08;0.38;;;;;;;;;;4993219;28;20113;-62
2022/07/28 12:02:10;;;;;;;0.47;0.40;;;;;;;;;;4993397;28;20476;-62
2022/07/28 12:04:37;;;;;;;0.63;0.50;;;;;;;;;;4992524;28;20383;-63
2022/07/28 12:07:04;;;;;;;1.98;0.50;;;;;;;;;;4993457;28;20044;-62
2022/07/28 12:09:32;;;;;;;0.82;0.50;;;;;;;;;;4992507;28;20030;-62
2022/07/28 12:11:59;;;;;;;1.25;0.50;;;;;;;;;;4992034;28;20480;-62
2022/07/28 12:14:28;;;;;;;2.53;0.50;;;;;;;;;;4990534;28;20031;-63
2022/07/28 12:16:55;;;;;;;0.75;0.50;;;;;;;;;;4991653;28;20057;-62
2022/07/28 12:19:23;;;;;;;1.98;0.38;;;;;;;;;;4991813;28;20109;-62
2022/07/28 12:21:53;;;;;;;0.88;0.57;;;;;;;;;;4993080;28;20496;-63
2022/07/28 12:24:30;;;;;;;1.05;0.45;;;;;;;;;;4991737;28;20034;-62
2022/07/28 12:26:59;;;;;;;0.80;0.40;;;;;;;;;;4992750;28;20045;-62
2022/07/28 12:29:30;;;;;;;0.70;0.40;;;;;;;;;;4991413;28;20056;-62
2022/07/28 12:32:04;;;;;;;0.82;0.47;;;;;;;;;;4992468;28;20041;-63
2022/07/28 12:34:36;;;;;;;0.90;0.50;;;;;;;;;;4988454;28;20049;-63
2022/07/28 12:37:11;;;;;;;1.88;0.50;;;;;;;;;;4988424;28;20439;-62
2022/07/28 12:39:40;;;;;;;2.75;0.50;;;;;;;;;;4990472;28;20062;-62
2022/07/28 12:42:08;;;;;;;3.45;0.70;;;;;;;;;;4989722;28;20041;-63
2022/07/28 12:44:43;;;;;;;1.38;0.70;;;;;;;;;;4974589;28;20495;-63
2022/07/28 12:47:11;;;;;;;1.92;0.50;;;;;;;;;;4989773;28;20480;-64
2022/07/28 12:49:39;;;;;;;5.38;0.90;;;;;;;;;;4984372;28;20035;-65
2022/07/28 12:52:22;;;;;;;4.15;0.70;;;;;;;;;;4979735;28;20049;-64
2022/07/28 12:54:49;;;;;;;0.45;0.30;;;;;;;;;;4955106;28;20062;-64
2022/07/28 12:57:16;;;;;;;3.15;0.60;;;;;;;;;;4986002;28;20039;-64
2022/07/28 12:59:43;;;;;;;2.85;0.50;;;;;;;;;;4984456;28;20041;-64
2022/07/28 13:02:10;;;;;;;2.30;0.63;;;;;;;;;;4982769;28;20026;-64
2022/07/28 13:04:45;;;;;;;3.65;0.68;;;;;;;;;;4982646;28;20030;-64
2022/07/28 13:07:25;;;;;;;4.03;0.85;;;;;;;;;;4990623;28;20029;-64
2022/07/28 13:10:07;;;;;;;2.65;0.60;;;;;;;;;;4989471;28;20031;-64
2022/07/28 13:12:34;;;;;;;8.32;0.80;;;;;;;;;;4985668;28;20035;-61
2022/07/28 13:15:02;;;;;;;5.60;0.70;;;;;;;;;;4991061;28;20031;-61
2022/07/28 13:17:48;;;;;;;2.55;0.60;;;;;;;;;;4991195;28;20042;-61
2022/07/28 13:20:14;;;;;;;3.05;0.80;;;;;;;;;;4990857;28;20030;-62
2022/07/28 13:22:45;;;;;;;9.35;1.13;;;;;;;;;;4988791;28;20035;-63
2022/07/28 13:25:12;;;;;;;3.35;0.70;;;;;;;;;;4990571;28;20118;-62
2022/07/28 13:27:41;;;;;;;7.38;0.93;;;;;;;;;;4990951;28;20488;-65
2022/07/28 13:30:08;;;;;;;5.38;1.15;;;;;;;;;;4991486;28;20843;-67
2022/07/28 13:32:35;;;;;;;2.83;0.43;;;;;;;;;;4990704;28;20033;-66
2022/07/28 13:35:02;;;;;;;5.60;0.80;;;;;;;;;;4988965;28;20046;-68
2022/07/28 13:37:29;;;;;;;5.88;1.23;;;;;;;;;;4991275;28;20078;-75
2022/07/28 13:39:56;;;;;;;9.05;1.13;;;;;;;;;;4991335;28;20022;-65
2022/07/28 13:42:23;;;;;;;9.30;0.82;;;;;;;;;;4990887;28;20022;-67
2022/07/28 13:44:50;;;;;;;6.57;0.80;;;;;;;;;;4988856;28;20493;-66
2022/07/28 13:47:17;;;;;;;10.10;1.30;;;;;;;;;;4991123;28;20400;-67
2022/07/28 13:49:44;;;;;;;6.45;1.27;;;;;;;;;;4991495;28;20026;-66
2022/07/28 13:52:15;;;;;;;6.18;0.80;;;;;;;;;;4990307;28;20057;-64
2022/07/28 13:54:43;;;;;;;4.68;1.00;;;;;;;;;;4986014;28;20027;-67
2022/07/28 13:57:10;;;;;;;7.38;1.17;;;;;;;;;;4994927;28;20046;-64
2022/07/28 13:59:37;;;;;;;4.03;1.05;;;;;;;;;;4994243;28;20038;-63
2022/07/28 14:02:04;;;;;;;16.70;1.25;;;;;;;;;;4993617;28;20026;-62
2022/07/28 14:04:31;;;;;;;4.15;0.90;;;;;;;;;;4993340;28;20030;-62
2022/07/28 14:06:58;;;;;;;5.97;0.80;;;;;;;;;;4993571;28;20038;-61
2022/07/28 14:09:25;;;;;;;8.05;0.95;;;;;;;;;;4994301;28;20037;-66
2022/07/28 14:11:52;;;;;;;6.50;1.00;;;;;;;;;;4994087;28;20038;-69
2022/07/28 14:14:19;;;;;;;4.00;0.90;;;;;;;;;;4975721;28;20034;-69
2022/07/28 14:16:46;;;;;;;1.95;0.55;;;;;;;;;;4986009;28;20030;-65
2022/07/28 14:19:16;;;;;;;6.68;1.05;;;;;;;;;;4993712;28;20388;-63
2022/07/28 14:21:44;;;;;;;6.20;0.80;;;;;;;;;;4992526;28;20038;-64
2022/07/28 14:24:11;;;;;;;4.63;0.77;;;;;;;;;;4993346;28;20381;-63
2022/07/28 14:26:38;;;;;;;3.65;0.73;;;;;;;;;;4992441;28;20824;-65
2022/07/28 14:29:06;;;;;;;16.92;1.52;;;;;;;;;;4991410;28;20077;-63
2022/07/28 14:31:34;;;;;;;5.85;1.02;;;;;;;;;;4991883;28;20084;-59
2022/07/28 14:34:02;;;;;;;7.93;0.80;;;;;;;;;;4993093;28;20080;-62
2022/07/28 14:36:29;;;;;;;13.20;0.88;;;;;;;;;;4993035;28;20396;-63
2022/07/28 14:38:57;;;;;;;4.50;0.80;;;;;;;;;;4993287;28;20045;-63
2022/07/28 14:41:24;;;;;;;17.17;1.52;;;;;;;;;;4992466;28;20117;-65
2022/07/28 14:43:52;;;;;;;5.28;0.98;;;;;;;;;;4975325;28;20056;-64
2022/07/28 14:46:19;;;;;;;7.75;1.30;;;;;;;;;;4992955;28;20096;-64
2022/07/28 14:48:46;;;;;;;6.13;1.08;;;;;;;;;;4991845;28;20392;-64
2022/07/28 14:51:13;;;;;;;6.28;0.95;;;;;;;;;;4993043;28;20034;-62
2022/07/28 14:53:41;;;;;;;11.63;1.20;;;;;;;;;;4992653;28;20026;-62
2022/07/28 14:56:14;;;;;;;7.03;1.00;;;;;;;;;;4991586;28;20757;-66
2022/07/28 14:58:42;;;;;;;9.10;0.85;;;;;;;;;;4992362;28;20477;-63
2022/07/28 15:01:09;;;;;;;10.90;0.90;;;;;;;;;;4975820;28;20073;-63
2022/07/28 15:03:36;;;;;;;8.77;1.08;;;;;;;;;;4992702;28;20223;-61